createdAt,value
2019-02-16T00:00:21.890Z,50.9
2019-02-16T00:00:47.994Z,50.8
2019-02-16T00:01:14.106Z,50.71
2019-02-16T00:01:40.205Z,50.71
2019-02-16T00:02:06.315Z,51.18
2019-02-16T00:02:32.426Z,50.61
2019-02-16T00:02:58.747Z,50.71
2019-02-16T00:03:25.435Z,51.18
2019-02-16T00:03:51.550Z,50.71
2019-02-16T00:04:17.660Z,50.61
2019-02-16T00:04:43.806Z,50.61
2019-02-16T00:05:10.061Z,51.09
2019-02-16T00:05:36.233Z,51.09
2019-02-16T00:06:02.334Z,51.18
2019-02-16T00:06:28.557Z,51.95
2019-02-16T00:06:54.913Z,51.76
2019-02-16T00:07:21.022Z,51.56
2019-02-16T00:07:47.172Z,51.66
2019-02-16T00:08:13.278Z,51.76
2019-02-16T00:08:39.382Z,51.47
2019-02-16T00:09:05.517Z,51.37
2019-02-16T00:09:31.622Z,51.85
2019-02-16T00:09:57.726Z,51.76
2019-02-16T00:10:23.840Z,51.47
2019-02-16T00:10:49.952Z,51.95
2019-02-16T00:11:16.055Z,51.85
2019-02-16T00:11:42.156Z,51.56
2019-02-16T00:12:08.264Z,52.14
2019-02-16T00:12:34.373Z,52.33
2019-02-16T00:13:00.481Z,51.56
2019-02-16T00:13:26.590Z,52.3
2019-02-16T00:13:52.692Z,52.14
2019-02-16T00:14:18.805Z,51.82
2019-02-16T00:14:44.906Z,51.92
2019-02-16T00:15:11.013Z,52.2
2019-02-16T00:15:37.145Z,51.92
2019-02-16T00:16:03.253Z,51.73
2019-02-16T00:16:29.363Z,52.11
2019-02-16T00:16:55.527Z,51.92
2019-02-16T00:17:21.656Z,51.82
2019-02-16T00:17:47.767Z,51.45
2019-02-16T00:18:13.871Z,51.82
2019-02-16T00:18:39.976Z,51.45
2019-02-16T00:19:06.110Z,51.54
2019-02-16T00:19:32.248Z,51.82
2019-02-16T00:19:58.351Z,51.45
2019-02-16T00:20:24.458Z,51.92
2019-02-16T00:20:50.564Z,51.82
2019-02-16T00:21:18.651Z,51.54
2019-02-16T00:21:44.780Z,51.92
2019-02-16T00:22:10.894Z,52.49
2019-02-16T00:22:36.987Z,52.59
2019-02-16T00:23:03.098Z,52.3
2019-02-16T00:23:29.214Z,52.2
2019-02-16T00:23:55.349Z,52.2
2019-02-16T00:24:21.453Z,52.2
2019-02-16T00:24:47.575Z,52.11
2019-02-16T00:25:13.673Z,52.11
2019-02-16T00:25:39.781Z,52.3
2019-02-16T00:26:05.889Z,52.11
2019-02-16T00:26:32.018Z,52.2
2019-02-16T00:26:58.130Z,52.2
2019-02-16T00:27:24.233Z,52.3
2019-02-16T00:27:50.339Z,52.2
2019-02-16T00:28:16.443Z,52.3
2019-02-16T00:28:42.548Z,52.59
2019-02-16T00:29:08.654Z,52.4
2019-02-16T00:29:34.761Z,52.2
2019-02-16T00:30:00.872Z,52.3
2019-02-16T00:30:26.975Z,52.59
2019-02-16T00:30:53.274Z,52.11
2019-02-16T00:31:19.382Z,52.2
2019-02-16T00:31:45.491Z,52.11
2019-02-16T00:32:11.592Z,52.49
2019-02-16T00:32:37.706Z,52.3
2019-02-16T00:33:03.844Z,52.49
2019-02-16T00:33:29.955Z,52.4
2019-02-16T00:33:56.054Z,52.2
2019-02-16T00:34:22.163Z,52.4
2019-02-16T00:34:48.304Z,52.4
2019-02-16T00:35:14.409Z,52.4
2019-02-16T00:35:40.509Z,52.11
2019-02-16T00:36:06.644Z,52.59
2019-02-16T00:36:32.745Z,52.59
2019-02-16T00:36:58.879Z,52.3
2019-02-16T00:37:24.993Z,52.4
2019-02-16T00:37:51.095Z,52.4
2019-02-16T00:38:17.200Z,52.49
2019-02-16T00:38:43.337Z,52.3
2019-02-16T00:39:09.973Z,52.3
2019-02-16T00:39:36.106Z,52.2
2019-02-16T00:40:02.218Z,52.49
2019-02-16T00:40:28.319Z,52.4
2019-02-16T00:40:54.424Z,52.59
2019-02-16T00:41:20.532Z,52.49
2019-02-16T00:41:46.644Z,52.4
2019-02-16T00:42:12.747Z,52.49
2019-02-16T00:42:38.857Z,52.3
2019-02-16T00:43:04.961Z,52.49
2019-02-16T00:43:31.068Z,52.59
2019-02-16T00:43:57.171Z,52.3
2019-02-16T00:44:23.301Z,52.59
2019-02-16T00:44:50.399Z,52.49
2019-02-16T00:45:16.517Z,52.97
2019-02-16T00:45:42.682Z,52.78
2019-02-16T00:46:08.785Z,53.16
2019-02-16T00:46:34.901Z,53.06
2019-02-16T00:47:01.002Z,52.78
2019-02-16T00:47:27.110Z,53.16
2019-02-16T00:47:53.274Z,52.87
2019-02-16T00:48:19.384Z,52.78
2019-02-16T00:48:45.497Z,52.97
2019-02-16T00:49:11.604Z,52.87
2019-02-16T00:49:37.711Z,52.97
2019-02-16T00:50:03.816Z,52.68
2019-02-16T00:50:29.921Z,52.97
2019-02-16T00:50:56.026Z,52.97
2019-02-16T00:51:23.156Z,52.87
2019-02-16T00:51:49.262Z,52.87
2019-02-16T00:52:15.396Z,52.87
2019-02-16T00:52:41.511Z,52.87
2019-02-16T00:53:07.623Z,52.87
2019-02-16T00:53:33.728Z,53.06
2019-02-16T00:54:00.827Z,52.97
2019-02-16T00:54:26.957Z,52.97
2019-02-16T00:54:53.269Z,52.87
2019-02-16T00:55:19.371Z,52.97
2019-02-16T00:55:45.479Z,53.06
2019-02-16T00:56:11.622Z,52.68
2019-02-16T00:56:37.744Z,53.16
2019-02-16T00:57:03.876Z,53.06
2019-02-16T00:57:29.981Z,52.87
2019-02-16T00:57:56.083Z,52.97
2019-02-16T00:58:22.186Z,52.97
2019-02-16T00:58:48.297Z,52.87
2019-02-16T00:59:14.405Z,52.87
2019-02-16T00:59:40.532Z,52.59
2019-02-16T01:00:06.664Z,52.78
2019-02-16T01:00:32.776Z,52.78
2019-02-16T01:00:58.916Z,52.78
2019-02-16T01:01:25.020Z,52.78
2019-02-16T01:01:51.152Z,52.87
2019-02-16T01:02:17.257Z,52.87
2019-02-16T01:02:43.372Z,52.87
2019-02-16T01:03:09.473Z,52.87
2019-02-16T01:03:35.601Z,52.87
2019-02-16T01:04:01.713Z,53.16
2019-02-16T01:04:27.852Z,53.35
2019-02-16T01:04:54.962Z,53.61
2019-02-16T01:05:21.128Z,53.54
2019-02-16T01:05:47.237Z,53.61
2019-02-16T01:06:13.348Z,53.92
2019-02-16T01:06:39.485Z,54.11
2019-02-16T01:07:05.600Z,54.02
2019-02-16T01:07:31.730Z,53.61
2019-02-16T01:07:57.838Z,53.61
2019-02-16T01:08:23.940Z,53.7
2019-02-16T01:08:50.069Z,53.7
2019-02-16T01:09:16.186Z,54.08
2019-02-16T01:09:42.321Z,53.89
2019-02-16T01:10:08.429Z,54.08
2019-02-16T01:10:34.587Z,54.08
2019-02-16T01:11:00.865Z,54.08
2019-02-16T01:11:27.059Z,54.18
2019-02-16T01:11:53.261Z,54.18
2019-02-16T01:12:19.394Z,54.47
2019-02-16T01:12:45.524Z,54.37
2019-02-16T01:13:11.663Z,54.37
2019-02-16T01:13:37.770Z,54.56
2019-02-16T01:14:03.904Z,54.37
2019-02-16T01:14:30.019Z,54.47
2019-02-16T01:14:56.125Z,54.47
2019-02-16T01:15:22.229Z,54.08
2019-02-16T01:15:48.331Z,54.37
2019-02-16T01:16:14.442Z,54.85
2019-02-16T01:16:40.544Z,54.75
2019-02-16T01:17:06.659Z,54.75
2019-02-16T01:17:32.756Z,54.47
2019-02-16T01:17:58.865Z,55.04
2019-02-16T01:18:25.022Z,54.85
2019-02-16T01:18:51.128Z,54.56
2019-02-16T01:19:17.231Z,54.66
2019-02-16T01:19:43.338Z,54.37
2019-02-16T01:20:09.449Z,54.27
2019-02-16T01:20:35.554Z,54.56
2019-02-16T01:21:01.653Z,54.66
2019-02-16T01:21:28.759Z,54.47
2019-02-16T01:21:54.889Z,54.66
2019-02-16T01:22:21.000Z,54.37
2019-02-16T01:22:47.104Z,54.66
2019-02-16T01:23:13.213Z,54.47
2019-02-16T01:23:39.317Z,54.94
2019-02-16T01:24:05.453Z,54.66
2019-02-16T01:24:31.569Z,54.56
2019-02-16T01:24:57.696Z,54.56
2019-02-16T01:25:23.804Z,54.56
2019-02-16T01:25:49.908Z,54.56
2019-02-16T01:26:16.018Z,54.66
2019-02-16T01:26:42.125Z,54.47
2019-02-16T01:27:08.227Z,55.42
2019-02-16T01:27:34.375Z,55.22
2019-02-16T01:28:00.484Z,55.04
2019-02-16T01:28:26.653Z,55.04
2019-02-16T01:28:52.752Z,55.22
2019-02-16T01:29:18.862Z,55.51
2019-02-16T01:29:44.978Z,54.94
2019-02-16T01:30:11.086Z,55.13
2019-02-16T01:30:37.237Z,55.04
2019-02-16T01:31:03.428Z,55.13
2019-02-16T01:31:29.585Z,55.04
2019-02-16T01:31:55.739Z,55.13
2019-02-16T01:32:21.893Z,55.22
2019-02-16T01:32:48.092Z,55.13
2019-02-16T01:33:14.305Z,55.13
2019-02-16T01:33:40.464Z,55.13
2019-02-16T01:34:06.666Z,55.13
2019-02-16T01:34:32.824Z,55.22
2019-02-16T01:34:58.971Z,55.22
2019-02-16T01:35:25.124Z,55.32
2019-02-16T01:35:51.275Z,55.04
2019-02-16T01:36:17.467Z,55.42
2019-02-16T01:36:43.660Z,55.22
2019-02-16T01:37:09.821Z,55.04
2019-02-16T01:37:36.251Z,55.04
2019-02-16T01:38:02.451Z,55.22
2019-02-16T01:38:28.586Z,55.22
2019-02-16T01:38:54.747Z,55.22
2019-02-16T01:39:20.905Z,54.94
2019-02-16T01:39:47.059Z,55.22
2019-02-16T01:40:13.222Z,54.94
2019-02-16T01:40:39.377Z,55.13
2019-02-16T01:41:05.532Z,55.13
2019-02-16T01:41:31.685Z,55.22
2019-02-16T01:41:58.435Z,55.7
2019-02-16T01:42:24.596Z,55.13
2019-02-16T01:42:50.753Z,55.22
2019-02-16T01:43:16.945Z,55.61
2019-02-16T01:43:43.142Z,55.9
2019-02-16T01:44:09.383Z,55.51
2019-02-16T01:44:35.530Z,55.61
2019-02-16T01:45:01.695Z,55.42
2019-02-16T01:45:27.848Z,55.42
2019-02-16T01:45:54.012Z,55.61
2019-02-16T01:46:20.158Z,55.42
2019-02-16T01:46:46.391Z,55.42
2019-02-16T01:47:12.504Z,55.51
2019-02-16T01:47:38.611Z,55.51
2019-02-16T01:48:04.720Z,55.51
2019-02-16T01:48:30.830Z,55.7
2019-02-16T01:48:56.934Z,55.7
2019-02-16T01:49:23.039Z,55.51
2019-02-16T01:49:49.149Z,55.7
2019-02-16T01:50:15.252Z,55.51
2019-02-16T01:50:41.366Z,55.13
2019-02-16T01:51:07.477Z,55.13
2019-02-16T01:51:35.566Z,55.7
2019-02-16T01:52:01.706Z,55.7
2019-02-16T01:52:27.828Z,55.32
2019-02-16T01:52:53.977Z,55.04
2019-02-16T01:53:20.118Z,55.32
2019-02-16T01:53:46.266Z,55.51
2019-02-16T01:54:12.421Z,55.42
2019-02-16T01:54:38.573Z,55.61
2019-02-16T01:55:04.733Z,55.9
2019-02-16T01:55:30.927Z,56.09
2019-02-16T01:55:58.060Z,56.18
2019-02-16T01:56:24.248Z,56.15
2019-02-16T01:56:50.413Z,55.22
2019-02-16T01:57:16.568Z,55.77
2019-02-16T01:57:42.727Z,55.49
2019-02-16T01:58:08.885Z,56.18
2019-02-16T01:58:35.037Z,56.15
2019-02-16T01:59:01.194Z,55.8
2019-02-16T01:59:27.383Z,55.96
2019-02-16T01:59:53.530Z,56.05
2019-02-16T02:00:19.687Z,56.27
2019-02-16T02:00:45.851Z,56.18
2019-02-16T02:01:11.996Z,56.24
2019-02-16T02:01:38.155Z,55.9
2019-02-16T02:02:04.327Z,56.05
2019-02-16T02:02:30.484Z,56.09
2019-02-16T02:02:56.644Z,56.37
2019-02-16T02:03:22.800Z,56.09
2019-02-16T02:03:48.954Z,55.9
2019-02-16T02:04:15.111Z,56.37
2019-02-16T02:04:41.274Z,56.65
2019-02-16T02:05:07.433Z,56.72
2019-02-16T02:05:33.587Z,57.01
2019-02-16T02:05:59.743Z,57.39
2019-02-16T02:06:25.936Z,57.29
2019-02-16T02:06:52.096Z,57.48
2019-02-16T02:07:18.252Z,57.48
2019-02-16T02:07:44.408Z,57.2
2019-02-16T02:08:10.570Z,57.39
2019-02-16T02:08:36.776Z,57.67
2019-02-16T02:09:02.914Z,57.48
2019-02-16T02:09:29.135Z,57.2
2019-02-16T02:09:55.241Z,57.58
2019-02-16T02:10:21.407Z,57.2
2019-02-16T02:10:47.552Z,57.1
2019-02-16T02:11:13.712Z,57.48
2019-02-16T02:11:39.866Z,56.63
2019-02-16T02:12:06.023Z,57.01
2019-02-16T02:12:32.185Z,57.1
2019-02-16T02:12:58.526Z,57.2
2019-02-16T02:13:24.683Z,57.01
2019-02-16T02:13:50.838Z,56.92
2019-02-16T02:14:16.992Z,57.01
2019-02-16T02:14:44.585Z,57.01
2019-02-16T02:15:10.756Z,56.92
2019-02-16T02:15:36.913Z,57.01
2019-02-16T02:16:03.071Z,56.72
2019-02-16T02:16:29.229Z,56.92
2019-02-16T02:16:55.386Z,56.82
2019-02-16T02:17:21.583Z,57.2
2019-02-16T02:17:47.736Z,57.1
2019-02-16T02:18:13.896Z,57.1
2019-02-16T02:18:40.059Z,57.48
2019-02-16T02:19:06.246Z,57.2
2019-02-16T02:19:32.408Z,56.92
2019-02-16T02:19:58.566Z,57.01
2019-02-16T02:20:24.725Z,56.82
2019-02-16T02:20:50.883Z,57.39
2019-02-16T02:21:17.081Z,57.29
2019-02-16T02:21:45.218Z,57.2
2019-02-16T02:22:11.411Z,57.29
2019-02-16T02:22:37.575Z,57.2
2019-02-16T02:23:03.738Z,57.77
2019-02-16T02:23:29.891Z,56.72
2019-02-16T02:23:56.038Z,57.1
2019-02-16T02:24:22.196Z,57.2
2019-02-16T02:24:48.353Z,57.01
2019-02-16T02:25:14.510Z,57.01
2019-02-16T02:25:40.670Z,57.39
2019-02-16T02:26:06.831Z,56.82
2019-02-16T02:26:32.985Z,56.92
2019-02-16T02:26:59.145Z,57.1
2019-02-16T02:27:25.296Z,56.92
2019-02-16T02:27:51.452Z,56.72
2019-02-16T02:28:17.604Z,56.63
2019-02-16T02:28:43.762Z,56.82
2019-02-16T02:29:09.924Z,57.01
2019-02-16T02:29:36.077Z,57.2
2019-02-16T02:30:02.268Z,57.2
2019-02-16T02:30:28.546Z,57.2
2019-02-16T02:30:54.693Z,57.48
2019-02-16T02:31:20.855Z,57.2
2019-02-16T02:31:48.036Z,57.2
2019-02-16T02:32:14.177Z,56.82
2019-02-16T02:32:40.347Z,57.1
2019-02-16T02:33:06.536Z,57.2
2019-02-16T02:33:32.727Z,57.2
2019-02-16T02:33:58.883Z,56.72
2019-02-16T02:34:25.072Z,57.01
2019-02-16T02:34:51.230Z,57.2
2019-02-16T02:35:17.387Z,57.1
2019-02-16T02:35:43.544Z,57.2
2019-02-16T02:36:09.787Z,57.01
2019-02-16T02:36:35.943Z,57.2
2019-02-16T02:37:02.105Z,57.29
2019-02-16T02:37:28.260Z,56.63
2019-02-16T02:37:54.453Z,57.1
2019-02-16T02:38:20.605Z,56.63
2019-02-16T02:38:46.766Z,57.29
2019-02-16T02:39:12.948Z,57.1
2019-02-16T02:39:39.105Z,57.39
2019-02-16T02:40:05.294Z,56.53
2019-02-16T02:40:31.535Z,57.29
2019-02-16T02:40:57.825Z,57.01
2019-02-16T02:41:23.988Z,56.92
2019-02-16T02:41:50.146Z,56.92
2019-02-16T02:42:16.295Z,57.1
2019-02-16T02:42:42.451Z,57.2
2019-02-16T02:43:08.645Z,57.1
2019-02-16T02:43:34.804Z,56.82
2019-02-16T02:44:00.991Z,57.01
2019-02-16T02:44:27.150Z,57.48
2019-02-16T02:44:53.307Z,57.67
2019-02-16T02:45:19.454Z,56.72
2019-02-16T02:45:45.687Z,56.82
2019-02-16T02:46:11.937Z,57.58
2019-02-16T02:46:38.085Z,57.29
2019-02-16T02:47:04.283Z,57.2
2019-02-16T02:47:30.438Z,57.77
2019-02-16T02:47:56.596Z,57.67
2019-02-16T02:48:22.754Z,57.48
2019-02-16T02:48:48.906Z,57.29
2019-02-16T02:49:15.105Z,57.2
2019-02-16T02:49:41.315Z,56.82
2019-02-16T02:50:07.495Z,57.58
2019-02-16T02:50:33.726Z,57.39
2019-02-16T02:50:59.965Z,57.39
2019-02-16T02:51:26.162Z,57.1
2019-02-16T02:51:53.343Z,57.58
2019-02-16T02:52:19.537Z,57.01
2019-02-16T02:52:45.687Z,57.39
2019-02-16T02:53:12.503Z,57.39
2019-02-16T02:53:39.683Z,57.29
2019-02-16T02:54:05.838Z,57.67
2019-02-16T02:54:32.029Z,56.92
2019-02-16T02:54:58.188Z,57.01
2019-02-16T02:55:24.417Z,57.1
2019-02-16T02:55:50.608Z,57.1
2019-02-16T02:56:16.796Z,56.82
2019-02-16T02:56:43.002Z,57.01
2019-02-16T02:57:09.246Z,56.92
2019-02-16T02:57:35.399Z,56.53
2019-02-16T02:58:01.587Z,56.72
2019-02-16T02:58:27.745Z,56.72
2019-02-16T02:58:53.941Z,57.2
2019-02-16T02:59:20.102Z,56.63
2019-02-16T02:59:46.333Z,57.01
2019-02-16T03:00:12.496Z,57.29
2019-02-16T03:00:38.743Z,57.1
2019-02-16T03:01:04.936Z,56.72
2019-02-16T03:01:31.101Z,57.77
2019-02-16T03:01:57.568Z,57.48
2019-02-16T03:02:23.799Z,57.58
2019-02-16T03:02:49.964Z,57.58
2019-02-16T03:03:16.114Z,57.1
2019-02-16T03:03:42.272Z,57.29
2019-02-16T03:04:08.452Z,57.29
2019-02-16T03:04:34.634Z,57.39
2019-02-16T03:05:00.833Z,57.58
2019-02-16T03:05:26.990Z,57.29
2019-02-16T03:05:53.337Z,57.39
2019-02-16T03:06:19.575Z,57.29
2019-02-16T03:06:45.729Z,57.2
2019-02-16T03:07:11.924Z,57.2
2019-02-16T03:07:38.083Z,57.29
2019-02-16T03:08:04.285Z,57.39
2019-02-16T03:08:30.505Z,57.58
2019-02-16T03:08:56.662Z,57.77
2019-02-16T03:09:22.857Z,57.96
2019-02-16T03:09:49.046Z,57.87
2019-02-16T03:10:15.196Z,57.87
2019-02-16T03:10:41.358Z,57.96
2019-02-16T03:11:07.557Z,57.77
2019-02-16T03:11:33.717Z,58.25
2019-02-16T03:11:59.950Z,58.25
2019-02-16T03:12:26.146Z,58.34
2019-02-16T03:12:52.383Z,58.06
2019-02-16T03:13:18.573Z,57.67
2019-02-16T03:13:44.808Z,57.77
2019-02-16T03:14:10.967Z,57.77
2019-02-16T03:14:37.166Z,57.36
2019-02-16T03:15:03.331Z,58.06
2019-02-16T03:15:29.519Z,57.67
2019-02-16T03:15:55.719Z,57.74
2019-02-16T03:16:21.947Z,58.15
2019-02-16T03:16:48.113Z,57.84
2019-02-16T03:17:14.306Z,57.65
2019-02-16T03:17:40.466Z,58.03
2019-02-16T03:18:06.624Z,58.06
2019-02-16T03:18:32.817Z,57.93
2019-02-16T03:18:58.972Z,58.03
2019-02-16T03:19:25.206Z,57.84
2019-02-16T03:19:51.366Z,58.03
2019-02-16T03:20:17.515Z,58.12
2019-02-16T03:20:43.681Z,58.12
2019-02-16T03:21:09.874Z,58.31
2019-02-16T03:21:36.093Z,58.22
2019-02-16T03:22:03.459Z,58.4
2019-02-16T03:22:29.624Z,58.31
2019-02-16T03:22:55.773Z,58.31
2019-02-16T03:23:21.927Z,58.4
2019-02-16T03:23:48.164Z,58.4
2019-02-16T03:24:14.355Z,58.69
2019-02-16T03:24:40.552Z,58.59
2019-02-16T03:25:06.801Z,58.79
2019-02-16T03:25:32.960Z,58.79
2019-02-16T03:25:59.166Z,58.79
2019-02-16T03:26:25.336Z,58.79
2019-02-16T03:26:51.511Z,59.45
2019-02-16T03:27:17.704Z,59.17
2019-02-16T03:27:43.857Z,59.27
2019-02-16T03:28:10.016Z,58.79
2019-02-16T03:28:36.171Z,58.98
2019-02-16T03:29:02.373Z,58.98
2019-02-16T03:29:28.594Z,59.07
2019-02-16T03:29:54.758Z,58.98
2019-02-16T03:30:20.956Z,58.69
2019-02-16T03:30:47.127Z,58.31
2019-02-16T03:31:13.296Z,58.31
2019-02-16T03:31:39.670Z,58.31
2019-02-16T03:32:05.840Z,58.03
2019-02-16T03:32:32.070Z,58.5
2019-02-16T03:32:58.299Z,58.5
2019-02-16T03:33:24.527Z,59.07
2019-02-16T03:33:50.729Z,59.36
2019-02-16T03:34:16.919Z,59.17
2019-02-16T03:34:43.115Z,59.07
2019-02-16T03:35:09.267Z,58.79
2019-02-16T03:35:35.463Z,59.07
2019-02-16T03:36:01.623Z,58.69
2019-02-16T03:36:27.775Z,58.98
2019-02-16T03:36:53.939Z,58.88
2019-02-16T03:37:20.120Z,59.07
2019-02-16T03:37:46.317Z,58.98
2019-02-16T03:38:12.502Z,58.79
2019-02-16T03:38:38.659Z,58.79
2019-02-16T03:39:04.809Z,58.79
2019-02-16T03:39:31.018Z,58.88
2019-02-16T03:39:57.181Z,59.07
2019-02-16T03:40:23.331Z,58.88
2019-02-16T03:40:49.529Z,59.74
2019-02-16T03:41:15.691Z,59.83
2019-02-16T03:41:41.846Z,59.64
2019-02-16T03:42:08.037Z,59.74
2019-02-16T03:42:34.274Z,59.74
2019-02-16T03:43:00.466Z,59.93
2019-02-16T03:43:26.621Z,60.02
2019-02-16T03:43:52.775Z,60.02
2019-02-16T03:44:18.935Z,60.12
2019-02-16T03:44:45.092Z,60.5
2019-02-16T03:45:11.256Z,60.5
2019-02-16T03:45:37.410Z,60.5
2019-02-16T03:46:04.060Z,60.5
2019-02-16T03:46:30.297Z,60.6
2019-02-16T03:46:56.478Z,60.21
2019-02-16T03:47:22.633Z,60.5
2019-02-16T03:47:48.840Z,60.69
2019-02-16T03:48:15.039Z,60.6
2019-02-16T03:48:41.187Z,60.6
2019-02-16T03:49:07.376Z,60.21
2019-02-16T03:49:33.574Z,60.31
2019-02-16T03:49:59.733Z,60.5
2019-02-16T03:50:25.897Z,60.31
2019-02-16T03:50:52.078Z,60.6
2019-02-16T03:51:18.234Z,60.5
2019-02-16T03:51:44.440Z,60.5
2019-02-16T03:52:14.062Z,60.41
2019-02-16T03:52:37.781Z,60.69
2019-02-16T03:53:03.938Z,60.69
2019-02-16T03:53:30.087Z,60.41
2019-02-16T03:53:56.243Z,59.93
2019-02-16T03:54:22.444Z,59.36
2019-02-16T03:54:48.640Z,59.55
2019-02-16T03:55:14.798Z,59.93
2019-02-16T03:55:40.955Z,60.02
2019-02-16T03:56:07.155Z,59.55
2019-02-16T03:56:33.310Z,59.93
2019-02-16T03:56:59.472Z,59.74
2019-02-16T03:57:25.629Z,59.55
2019-02-16T03:57:51.863Z,59.74
2019-02-16T03:58:18.017Z,59.83
2019-02-16T03:58:44.174Z,59.74
2019-02-16T03:59:10.333Z,59.83
2019-02-16T03:59:36.522Z,59.83
2019-02-16T04:00:02.679Z,59.64
2019-02-16T04:00:28.837Z,60.02
2019-02-16T04:00:54.995Z,59.74
2019-02-16T04:01:21.145Z,59.74
2019-02-16T04:01:47.305Z,59.74
2019-02-16T04:02:13.458Z,59.74
2019-02-16T04:02:39.619Z,59.83
2019-02-16T04:03:05.821Z,59.64
2019-02-16T04:03:31.966Z,59.55
2019-02-16T04:03:58.165Z,59.36
2019-02-16T04:04:24.327Z,59.93
2019-02-16T04:04:50.549Z,59.83
2019-02-16T04:05:16.702Z,60.41
2019-02-16T04:05:42.861Z,60.69
2019-02-16T04:06:09.018Z,60.5
2019-02-16T04:06:35.229Z,60.41
2019-02-16T04:07:01.406Z,60.41
2019-02-16T04:07:27.605Z,60.5
2019-02-16T04:07:53.801Z,60.5
2019-02-16T04:08:19.963Z,60.6
2019-02-16T04:08:46.155Z,60.21
2019-02-16T04:09:12.307Z,60.6
2019-02-16T04:09:38.502Z,60.12
2019-02-16T04:10:04.746Z,60.41
2019-02-16T04:10:30.972Z,60.88
2019-02-16T04:10:57.128Z,60.78
2019-02-16T04:11:23.286Z,60.6
2019-02-16T04:11:49.442Z,60.6
2019-02-16T04:12:15.789Z,60.97
2019-02-16T04:12:41.866Z,61.16
2019-02-16T04:13:08.204Z,61.45
2019-02-16T04:13:34.354Z,61.55
2019-02-16T04:14:00.511Z,61.35
2019-02-16T04:14:26.712Z,61.74
2019-02-16T04:14:52.882Z,61.64
2019-02-16T04:15:19.012Z,61.93
2019-02-16T04:15:45.173Z,61.45
2019-02-16T04:16:11.339Z,61.35
2019-02-16T04:16:37.476Z,61.74
2019-02-16T04:17:03.611Z,61.55
2019-02-16T04:17:29.811Z,61.16
2019-02-16T04:17:55.964Z,60.97
2019-02-16T04:18:22.116Z,60.88
2019-02-16T04:18:48.323Z,61.07
2019-02-16T04:19:14.486Z,61.64
2019-02-16T04:19:40.647Z,61.26
2019-02-16T04:20:06.790Z,61.35
2019-02-16T04:20:32.923Z,60.88
2019-02-16T04:20:59.048Z,61.35
2019-02-16T04:21:25.207Z,61.83
2019-02-16T04:21:51.351Z,61.35
2019-02-16T04:22:24.432Z,61.45
2019-02-16T04:22:45.651Z,61.45
2019-02-16T04:23:11.784Z,61.55
2019-02-16T04:23:37.977Z,61.35
2019-02-16T04:24:04.120Z,60.88
2019-02-16T04:24:30.298Z,60.78
2019-02-16T04:24:56.527Z,60.78
2019-02-16T04:25:22.726Z,60.6
2019-02-16T04:25:48.922Z,60.69
2019-02-16T04:26:15.062Z,60.78
2019-02-16T04:26:41.243Z,61.04
2019-02-16T04:27:07.428Z,61.71
2019-02-16T04:27:33.562Z,61.8
2019-02-16T04:27:59.768Z,61.32
2019-02-16T04:28:25.895Z,61.42
2019-02-16T04:28:52.039Z,61.23
2019-02-16T04:29:18.166Z,61.23
2019-02-16T04:29:44.298Z,61.71
2019-02-16T04:30:10.406Z,61.42
2019-02-16T04:30:36.571Z,61.52
2019-02-16T04:31:02.723Z,61.42
2019-02-16T04:31:28.863Z,61.42
2019-02-16T04:31:55.007Z,61.99
2019-02-16T04:32:21.200Z,61.8
2019-02-16T04:32:47.308Z,61.99
2019-02-16T04:33:13.439Z,62.08
2019-02-16T04:33:39.579Z,62.18
2019-02-16T04:34:05.695Z,62.18
2019-02-16T04:34:31.802Z,62.08
2019-02-16T04:34:57.908Z,62.37
2019-02-16T04:35:24.021Z,62.56
2019-02-16T04:35:50.176Z,62.46
2019-02-16T04:36:16.295Z,62.56
2019-02-16T04:36:42.466Z,62.75
2019-02-16T04:37:08.587Z,62.75
2019-02-16T04:37:34.697Z,62.56
2019-02-16T04:38:00.852Z,63.04
2019-02-16T04:38:26.950Z,62.65
2019-02-16T04:38:53.291Z,62.94
2019-02-16T04:39:19.426Z,62.75
2019-02-16T04:39:45.594Z,62.75
2019-02-16T04:40:11.697Z,63.04
2019-02-16T04:40:37.813Z,63.13
2019-02-16T04:41:03.923Z,62.85
2019-02-16T04:41:30.042Z,63.7
2019-02-16T04:41:56.148Z,63.7
2019-02-16T04:42:22.256Z,63.23
2019-02-16T04:42:48.364Z,62.69
2019-02-16T04:43:14.468Z,62.56
2019-02-16T04:43:40.577Z,62.75
2019-02-16T04:44:06.755Z,62.56
2019-02-16T04:44:32.875Z,62.56
2019-02-16T04:44:59.007Z,62.27
2019-02-16T04:45:25.108Z,62.46
2019-02-16T04:45:51.219Z,62.65
2019-02-16T04:46:17.352Z,62.56
2019-02-16T04:46:43.492Z,62.56
2019-02-16T04:47:09.616Z,62.56
2019-02-16T04:47:35.732Z,62.37
2019-02-16T04:48:01.883Z,62.37
2019-02-16T04:48:28.016Z,63.13
2019-02-16T04:48:54.156Z,62.65
2019-02-16T04:49:20.286Z,62.94
2019-02-16T04:49:46.393Z,63.23
2019-02-16T04:50:12.497Z,62.94
2019-02-16T04:50:38.599Z,62.65
2019-02-16T04:51:04.709Z,62.94
2019-02-16T04:51:30.818Z,63.23
2019-02-16T04:51:56.919Z,63.6
2019-02-16T04:52:23.031Z,63.51
2019-02-16T04:52:50.144Z,63.13
2019-02-16T04:53:16.283Z,63.23
2019-02-16T04:53:42.385Z,62.75
2019-02-16T04:54:08.511Z,62.85
2019-02-16T04:54:34.647Z,63.13
2019-02-16T04:55:01.381Z,63.13
2019-02-16T04:55:27.503Z,63.32
2019-02-16T04:55:53.605Z,63.42
2019-02-16T04:56:19.746Z,62.85
2019-02-16T04:56:45.893Z,63.04
2019-02-16T04:57:12.024Z,62.65
2019-02-16T04:57:38.177Z,63.6
2019-02-16T04:58:04.315Z,62.75
2019-02-16T04:58:30.425Z,62.94
2019-02-16T04:58:56.533Z,63.42
2019-02-16T04:59:22.633Z,63.32
2019-02-16T04:59:48.744Z,63.32
2019-02-16T05:00:14.907Z,63.13
2019-02-16T05:00:41.011Z,63.7
2019-02-16T05:01:07.133Z,64.18
2019-02-16T05:01:33.241Z,64.18
2019-02-16T05:01:59.350Z,63.79
2019-02-16T05:02:25.465Z,63.89
2019-02-16T05:02:51.622Z,63.99
2019-02-16T05:03:17.727Z,63.6
2019-02-16T05:03:43.822Z,63.99
2019-02-16T05:04:09.959Z,63.99
2019-02-16T05:04:36.107Z,63.7
2019-02-16T05:05:02.236Z,64.46
2019-02-16T05:05:28.351Z,63.89
2019-02-16T05:05:54.482Z,63.99
2019-02-16T05:06:20.609Z,64.18
2019-02-16T05:06:46.752Z,63.99
2019-02-16T05:07:12.862Z,64.08
2019-02-16T05:07:38.996Z,63.6
2019-02-16T05:08:05.343Z,63.23
2019-02-16T05:08:31.454Z,63.13
2019-02-16T05:08:57.555Z,63.51
2019-02-16T05:09:23.690Z,63.42
2019-02-16T05:09:49.827Z,63.32
2019-02-16T05:10:15.932Z,63.42
2019-02-16T05:10:42.061Z,63.51
2019-02-16T05:11:08.172Z,63.99
2019-02-16T05:11:34.313Z,63.6
2019-02-16T05:12:00.411Z,64.34
2019-02-16T05:12:26.522Z,64.34
2019-02-16T05:12:52.656Z,64.43
2019-02-16T05:13:18.802Z,64.43
2019-02-16T05:13:44.928Z,64.43
2019-02-16T05:14:11.054Z,64.53
2019-02-16T05:14:37.175Z,64.24
2019-02-16T05:15:03.278Z,64.14
2019-02-16T05:15:29.383Z,64.43
2019-02-16T05:15:55.492Z,64.43
2019-02-16T05:16:21.622Z,64.72
2019-02-16T05:16:47.730Z,64.81
2019-02-16T05:17:13.865Z,65
2019-02-16T05:17:39.978Z,64.34
2019-02-16T05:18:06.080Z,64.72
2019-02-16T05:18:32.183Z,64.81
2019-02-16T05:18:58.292Z,65.47
2019-02-16T05:19:24.431Z,65.19
2019-02-16T05:19:50.536Z,65.47
2019-02-16T05:20:16.670Z,65.67
2019-02-16T05:20:42.810Z,65.76
2019-02-16T05:21:09.010Z,65.67
2019-02-16T05:21:35.116Z,65.38
2019-02-16T05:22:01.239Z,65.28
2019-02-16T05:22:27.369Z,65.67
2019-02-16T05:22:54.486Z,66.05
2019-02-16T05:23:20.627Z,65.67
2019-02-16T05:23:46.763Z,65.86
2019-02-16T05:24:12.922Z,65.95
2019-02-16T05:24:39.027Z,65.86
2019-02-16T05:25:05.167Z,65.67
2019-02-16T05:25:31.273Z,65.47
2019-02-16T05:25:57.410Z,65.47
2019-02-16T05:26:23.545Z,65.86
2019-02-16T05:26:49.673Z,65.86
2019-02-16T05:27:15.811Z,65.67
2019-02-16T05:27:41.916Z,65.76
2019-02-16T05:28:08.026Z,65.86
2019-02-16T05:28:34.154Z,65.86
2019-02-16T05:29:00.335Z,66.42
2019-02-16T05:29:26.414Z,65.86
2019-02-16T05:29:52.546Z,66.05
2019-02-16T05:30:18.691Z,66.24
2019-02-16T05:30:44.816Z,66.42
2019-02-16T05:31:10.953Z,66.42
2019-02-16T05:31:37.088Z,66.24
2019-02-16T05:32:03.195Z,66.71
2019-02-16T05:32:29.297Z,66.52
2019-02-16T05:32:55.442Z,66.33
2019-02-16T05:33:21.582Z,66.14
2019-02-16T05:33:47.774Z,66.33
2019-02-16T05:34:13.920Z,66.52
2019-02-16T05:34:40.025Z,65.76
2019-02-16T05:35:06.162Z,66.42
2019-02-16T05:35:32.265Z,65.67
2019-02-16T05:35:58.474Z,65.67
2019-02-16T05:36:24.603Z,65.47
2019-02-16T05:36:50.705Z,65.57
2019-02-16T05:37:16.854Z,65.67
2019-02-16T05:37:42.961Z,65.76
2019-02-16T05:38:09.104Z,65.76
2019-02-16T05:38:35.191Z,65.76
2019-02-16T05:39:01.326Z,65.57